createdAt,value
2023-05-19T00:01:22.703Z,101821.66
2023-05-19T00:03:53.720Z,101824.16
2023-05-19T00:06:25.079Z,101826.91
2023-05-19T00:09:01.794Z,101833.00
2023-05-19T00:11:29.204Z,101823.44
2023-05-19T00:13:57.164Z,101822.97
2023-05-19T00:16:24.602Z,101823.47
2023-05-19T00:18:51.819Z,101824.91
2023-05-19T00:21:19.053Z,101824.50
2023-05-19T00:23:45.685Z,101826.22
2023-05-19T00:26:12.382Z,101821.56
2023-05-19T00:28:46.079Z,101821.53
2023-05-19T00:31:12.938Z,101819.84
2023-05-19T00:33:39.548Z,101820.88
2023-05-19T00:36:06.424Z,101815.50
2023-05-19T00:38:36.581Z,101815.66
2023-05-19T00:41:03.984Z,101819.28
2023-05-19T00:43:30.692Z,101824.53
2023-05-19T00:45:57.947Z,101820.59
2023-05-19T00:48:27.778Z,101824.72
2023-05-19T00:50:56.356Z,101815.72
2023-05-19T00:53:23.320Z,101822.00
2023-05-19T00:55:50.548Z,101813.91
2023-05-19T00:58:17.189Z,101816.91
2023-05-19T01:00:44.422Z,101816.22
2023-05-19T01:03:11.786Z,101815.38
2023-05-19T01:05:44.834Z,101810.50
2023-05-19T01:08:11.911Z,101809.34
2023-05-19T01:10:38.500Z,101810.19
2023-05-19T01:13:05.890Z,101812.59
2023-05-19T01:15:38.639Z,101814.19
2023-05-19T01:18:08.340Z,101800.16
2023-05-19T01:20:41.382Z,101812.25
2023-05-19T01:23:15.318Z,101808.44
2023-05-19T01:26:00.916Z,101809.66
2023-05-19T01:28:33.676Z,101817.94
2023-05-19T01:31:01.174Z,101823.31
2023-05-19T01:33:30.182Z,101817.38
2023-05-19T01:35:58.024Z,101815.56
2023-05-19T01:38:28.344Z,101810.88
2023-05-19T01:40:56.289Z,101816.97
2023-05-19T01:43:26.772Z,101801.19
2023-05-19T01:45:53.594Z,101809.59
2023-05-19T01:48:24.836Z,101811.44
2023-05-19T01:50:51.658Z,101812.59
2023-05-19T01:53:18.258Z,101823.41
2023-05-19T01:55:50.090Z,101808.69
2023-05-19T01:58:37.866Z,101810.06
2023-05-19T02:01:10.791Z,101811.09
2023-05-19T02:03:40.953Z,101814.19
2023-05-19T02:06:26.808Z,101809.88
2023-05-19T02:09:06.913Z,101819.88
2023-05-19T02:11:35.965Z,101816.53
2023-05-19T02:14:03.471Z,101814.25
2023-05-19T02:16:30.485Z,101807.84
2023-05-19T02:18:59.298Z,101815.66
2023-05-19T02:21:26.774Z,101811.47
2023-05-19T02:23:54.857Z,101812.44
2023-05-19T02:26:21.752Z,101799.03
2023-05-19T02:28:48.304Z,101804.63
2023-05-19T02:31:15.107Z,101798.75
2023-05-19T02:33:43.053Z,101796.66
2023-05-19T02:36:10.161Z,101800.63
2023-05-19T02:38:39.751Z,101806.69
2023-05-19T02:41:08.681Z,101800.16
2023-05-19T02:43:35.513Z,101796.75
2023-05-19T02:46:02.269Z,101795.00
2023-05-19T02:48:31.866Z,101802.41
2023-05-19T02:50:58.519Z,101799.06
2023-05-19T02:53:25.191Z,101795.03
2023-05-19T02:55:54.112Z,101797.25
2023-05-19T02:58:20.887Z,101789.69
2023-05-19T03:00:48.019Z,101786.34
2023-05-19T03:03:15.136Z,101790.50
2023-05-19T03:05:42.877Z,101795.84
2023-05-19T03:08:09.514Z,101789.84
2023-05-19T03:10:36.393Z,101792.56
2023-05-19T03:13:03.060Z,101780.84
2023-05-19T03:15:30.712Z,101790.56
2023-05-19T03:17:57.452Z,101791.75
2023-05-19T03:20:24.653Z,101790.34
2023-05-19T03:22:54.448Z,101794.59
2023-05-19T03:25:21.265Z,101793.03
2023-05-19T03:27:47.844Z,101788.59
2023-05-19T03:30:14.743Z,101790.53
2023-05-19T03:32:55.928Z,101790.34
2023-05-19T03:35:24.990Z,101797.22
2023-05-19T03:37:51.594Z,101797.56
2023-05-19T03:40:19.011Z,101792.72
2023-05-19T03:42:46.182Z,101790.28
2023-05-19T03:45:13.711Z,101789.78
2023-05-19T03:47:41.316Z,101804.84
2023-05-19T03:50:29.196Z,101796.97
2023-05-19T03:53:01.842Z,101797.56
2023-05-19T03:55:32.053Z,101797.09
2023-05-19T03:57:58.695Z,101800.63
2023-05-19T04:00:25.405Z,101802.09
2023-05-19T04:02:54.495Z,101809.06
2023-05-19T04:05:21.224Z,101804.81
2023-05-19T04:07:47.952Z,101795.66
2023-05-19T04:10:14.587Z,101805.75
2023-05-19T04:12:41.347Z,101802.03
2023-05-19T04:15:11.560Z,101809.16
2023-05-19T04:17:38.456Z,101805.91
2023-05-19T04:20:08.069Z,101809.47
2023-05-19T04:22:36.905Z,101806.53
2023-05-19T04:25:05.242Z,101790.59
2023-05-19T04:27:32.167Z,101810.16
2023-05-19T04:30:01.293Z,101804.94
2023-05-19T04:32:29.392Z,101800.31
2023-05-19T04:34:58.938Z,101812.38
2023-05-19T04:37:30.054Z,101807.16
2023-05-19T04:39:57.477Z,101801.31
2023-05-19T04:42:26.259Z,101804.13
2023-05-19T04:44:54.256Z,101796.06
2023-05-19T04:47:28.220Z,101804.66
2023-05-19T04:49:55.811Z,101801.16
2023-05-19T04:52:22.790Z,101801.00
2023-05-19T04:54:50.709Z,101809.16
2023-05-19T04:57:17.445Z,101809.78
2023-05-19T04:59:46.206Z,101815.97
2023-05-19T05:02:12.931Z,101803.78
2023-05-19T05:04:42.718Z,101805.00
2023-05-19T05:07:09.985Z,101802.88
2023-05-19T05:09:37.632Z,101809.94
2023-05-19T05:12:04.704Z,101806.41
2023-05-19T05:14:31.454Z,101804.47
2023-05-19T05:16:58.334Z,101811.50
2023-05-19T05:19:26.044Z,101802.69
2023-05-19T05:21:54.057Z,101800.63
2023-05-19T05:24:21.092Z,101810.50
2023-05-19T05:26:54.117Z,101812.47
2023-05-19T05:29:21.280Z,101806.97
2023-05-19T05:31:47.977Z,101813.84
2023-05-19T05:34:16.935Z,101801.44
2023-05-19T05:36:43.752Z,101806.72
2023-05-19T05:39:10.519Z,101807.38
2023-05-19T05:41:39.836Z,101798.97
2023-05-19T05:44:10.771Z,101797.94
2023-05-19T05:46:39.534Z,101801.56
2023-05-19T05:49:09.030Z,101803.84
2023-05-19T05:51:35.895Z,101802.66
2023-05-19T05:54:03.077Z,101809.28
2023-05-19T05:56:37.060Z,101810.00
2023-05-19T05:59:07.826Z,101805.94
2023-05-19T06:01:35.837Z,101802.56
2023-05-19T06:04:04.763Z,101799.63
2023-05-19T06:06:32.835Z,101807.84
2023-05-19T06:09:01.428Z,101800.94
2023-05-19T06:11:28.859Z,101807.09
2023-05-19T06:13:58.385Z,101804.56
2023-05-19T06:16:43.716Z,101802.03
2023-05-19T06:19:11.057Z,101809.56
2023-05-19T06:21:37.775Z,101808.28
2023-05-19T06:24:04.597Z,101806.47
2023-05-19T06:26:31.258Z,101810.25
2023-05-19T06:28:57.984Z,101813.09
2023-05-19T06:31:26.555Z,101811.91
2023-05-19T06:33:56.129Z,101807.28
2023-05-19T06:36:22.822Z,101813.56
2023-05-19T06:38:49.693Z,101809.53
2023-05-19T06:41:16.388Z,101818.69
2023-05-19T06:43:43.168Z,101810.59
2023-05-19T06:46:13.814Z,101817.38
2023-05-19T06:48:40.686Z,101817.50
2023-05-19T06:51:10.223Z,101817.59
2023-05-19T06:53:39.801Z,101822.31
2023-05-19T06:56:08.870Z,101815.38
2023-05-19T06:58:39.493Z,101814.53
2023-05-19T07:01:06.225Z,101822.72
2023-05-19T07:03:39.262Z,101821.81
2023-05-19T07:06:08.076Z,101811.09
2023-05-19T07:08:37.363Z,101813.28
2023-05-19T07:11:06.203Z,101823.94
2023-05-19T07:13:33.093Z,101821.81
2023-05-19T07:15:59.751Z,101814.06
2023-05-19T07:18:31.938Z,101811.75
2023-05-19T07:20:59.067Z,101819.34
2023-05-19T07:23:28.127Z,101820.53
2023-05-19T07:25:58.914Z,101820.94
2023-05-19T07:28:25.703Z,101814.16
2023-05-19T07:30:53.214Z,101806.28
2023-05-19T07:33:19.876Z,101804.16
2023-05-19T07:35:46.612Z,101806.72
2023-05-19T07:38:13.909Z,101798.22
2023-05-19T07:40:40.532Z,101797.91
2023-05-19T07:43:07.178Z,101797.25
2023-05-19T07:45:33.829Z,101794.59
2023-05-19T07:48:00.689Z,101793.94
2023-05-19T07:50:27.438Z,101787.31
2023-05-19T07:52:54.119Z,101788.22
2023-05-19T07:55:23.194Z,101794.56
2023-05-19T07:57:50.881Z,101783.28
2023-05-19T08:00:17.854Z,101791.84
2023-05-19T08:02:44.904Z,101780.06
2023-05-19T08:05:12.152Z,101782.53
2023-05-19T08:07:38.939Z,101785.28
2023-05-19T08:10:06.785Z,101779.94
2023-05-19T08:12:33.445Z,101784.44
2023-05-19T08:15:01.391Z,101785.16
2023-05-19T08:17:30.792Z,101782.53
2023-05-19T08:19:57.689Z,101786.84
2023-05-19T08:22:24.428Z,101781.38
2023-05-19T08:24:52.266Z,101782.13
2023-05-19T08:27:18.930Z,101783.78
2023-05-19T08:29:45.523Z,101781.91
2023-05-19T08:32:13.398Z,101778.59
2023-05-19T08:34:40.271Z,101773.47
2023-05-19T08:37:07.611Z,101776.53
2023-05-19T08:39:34.833Z,101769.13
2023-05-19T08:42:02.460Z,101772.31
2023-05-19T08:44:30.912Z,101764.00
2023-05-19T08:47:00.764Z,101762.16
2023-05-19T08:49:31.102Z,101762.91
2023-05-19T08:52:17.224Z,101758.81
2023-05-19T08:54:50.972Z,101756.53
2023-05-19T08:57:18.007Z,101751.91
2023-05-19T08:59:44.904Z,101746.13
2023-05-19T09:02:13.237Z,101743.66
2023-05-19T09:04:40.289Z,101745.63
2023-05-19T09:07:07.039Z,101738.16
2023-05-19T09:09:33.620Z,101735.03
2023-05-19T09:12:00.285Z,101733.69
2023-05-19T09:14:26.933Z,101737.88
2023-05-19T09:16:54.082Z,101733.00
2023-05-19T09:19:21.337Z,101728.44
2023-05-19T09:21:57.991Z,101724.72
2023-05-19T09:24:25.984Z,101725.19
2023-05-19T09:26:55.228Z,101723.47
2023-05-19T09:29:22.691Z,101730.94
2023-05-19T09:31:53.880Z,101721.63
2023-05-19T09:34:22.303Z,101726.84
2023-05-19T09:36:54.945Z,101716.69
2023-05-19T09:39:25.242Z,101715.13
2023-05-19T09:41:55.359Z,101709.44
2023-05-19T09:44:31.219Z,101715.22
2023-05-19T09:46:58.760Z,101712.06
2023-05-19T09:49:29.508Z,101704.28
2023-05-19T09:51:56.844Z,101704.72
2023-05-19T09:54:24.222Z,101692.38
2023-05-19T09:56:57.582Z,101698.34
2023-05-19T09:59:25.709Z,101713.06
2023-05-19T10:01:56.867Z,101708.28
2023-05-19T10:04:29.745Z,101697.03
2023-05-19T10:06:59.860Z,101697.56
2023-05-19T10:09:27.936Z,101696.53
2023-05-19T10:11:55.836Z,101687.94
2023-05-19T10:14:23.596Z,101678.84
2023-05-19T10:16:54.210Z,101681.47
2023-05-19T10:19:24.949Z,101668.78
2023-05-19T10:21:52.445Z,101665.63
2023-05-19T10:24:21.226Z,101665.69
2023-05-19T10:27:01.513Z,101671.28
2023-05-19T10:29:39.917Z,101665.72
2023-05-19T10:32:18.803Z,101666.94
2023-05-19T10:34:57.900Z,101655.97
2023-05-19T10:37:57.044Z,101656.69
2023-05-19T10:40:33.231Z,101663.72
2023-05-19T10:43:02.805Z,101659.16
2023-05-19T10:45:36.382Z,101652.59
2023-05-19T10:48:03.249Z,101651.78
2023-05-19T10:50:36.141Z,101649.16
2023-05-19T10:53:02.785Z,101643.28
2023-05-19T10:56:04.526Z,101641.06
2023-05-19T10:58:37.229Z,101631.16
2023-05-19T11:01:07.015Z,101645.31
2023-05-19T11:03:43.325Z,101637.69
2023-05-19T11:06:19.212Z,101638.88
2023-05-19T11:08:47.861Z,101634.66
2023-05-19T11:11:15.120Z,101642.06
2023-05-19T11:13:43.585Z,101644.03
2023-05-19T11:16:10.494Z,101639.84
2023-05-19T11:18:38.408Z,101636.75
2023-05-19T11:21:08.654Z,101628.59
2023-05-19T11:23:38.228Z,101630.47
2023-05-19T11:26:06.653Z,101634.16
2023-05-19T11:28:33.516Z,101632.97
2023-05-19T11:31:02.537Z,101627.66
2023-05-19T11:33:30.072Z,101631.56
2023-05-19T11:36:00.802Z,101630.63
2023-05-19T11:38:28.564Z,101625.31
2023-05-19T11:40:55.918Z,101632.09
2023-05-19T11:43:23.764Z,101613.38
2023-05-19T11:45:51.010Z,101617.84
2023-05-19T11:48:20.635Z,101610.75
2023-05-19T11:50:47.656Z,101616.09
2023-05-19T11:53:15.298Z,101619.34
2023-05-19T11:55:48.116Z,101617.81
2023-05-19T11:58:15.228Z,101614.56
2023-05-19T12:00:43.219Z,101607.59
2023-05-19T12:03:10.188Z,101608.50
2023-05-19T12:05:41.930Z,101615.19
2023-05-19T12:08:10.355Z,101625.75
2023-05-19T12:10:37.180Z,101628.16
2023-05-19T12:13:06.292Z,101627.41
2023-05-19T12:15:33.649Z,101623.97
2023-05-19T12:18:03.591Z,101622.63
2023-05-19T12:20:35.809Z,101615.03
2023-05-19T12:23:03.143Z,101610.59
2023-05-19T12:25:30.337Z,101601.91
2023-05-19T12:28:00.997Z,101602.84
2023-05-19T12:30:29.079Z,101592.34
2023-05-19T12:32:57.815Z,101601.66
2023-05-19T12:35:28.288Z,101607.03
2023-05-19T12:37:55.123Z,101611.19
2023-05-19T12:40:22.107Z,101595.03
2023-05-19T12:42:49.869Z,101593.59
2023-05-19T12:45:20.655Z,101588.66
2023-05-19T12:47:48.369Z,101574.50
2023-05-19T12:50:15.036Z,101573.00
2023-05-19T12:52:42.838Z,101587.81
2023-05-19T12:55:11.207Z,101593.22
2023-05-19T12:57:38.737Z,101590.56
2023-05-19T13:00:32.546Z,101583.94
2023-05-19T13:03:00.919Z,101590.25
2023-05-19T13:05:28.417Z,101587.91
2023-05-19T13:07:59.073Z,101598.47
2023-05-19T13:10:29.012Z,101594.91
2023-05-19T13:12:56.218Z,101588.19
2023-05-19T13:15:24.232Z,101583.81
2023-05-19T13:17:51.054Z,101577.81
2023-05-19T13:20:17.794Z,101584.19
2023-05-19T13:22:44.582Z,101581.34
2023-05-19T13:25:11.413Z,101577.59
2023-05-19T13:27:38.063Z,101570.22
2023-05-19T13:30:05.391Z,101572.47
2023-05-19T13:32:33.632Z,101565.47
2023-05-19T13:35:01.234Z,101556.81
2023-05-19T13:37:28.444Z,101563.66
2023-05-19T13:39:55.482Z,101554.88
2023-05-19T13:42:22.267Z,101562.31
2023-05-19T13:44:48.945Z,101545.94
2023-05-19T13:47:15.887Z,101552.34
2023-05-19T13:49:42.678Z,101553.81
2023-05-19T13:52:09.396Z,101556.47
2023-05-19T13:54:36.088Z,101565.34
2023-05-19T13:57:02.714Z,101560.38
2023-05-19T13:59:29.815Z,101561.66
2023-05-19T14:01:56.556Z,101562.03
2023-05-19T14:04:24.456Z,101558.13
2023-05-19T14:06:51.228Z,101566.09
2023-05-19T14:09:17.867Z,101562.19
2023-05-19T14:11:44.562Z,101562.47
2023-05-19T14:14:11.645Z,101555.06
2023-05-19T14:16:38.828Z,101559.78
2023-05-19T14:19:05.768Z,101548.41
2023-05-19T14:21:32.797Z,101548.34
2023-05-19T14:23:59.653Z,101543.63
2023-05-19T14:26:28.079Z,101546.28
2023-05-19T14:28:57.157Z,101535.22
2023-05-19T14:31:26.870Z,101537.97
2023-05-19T14:33:54.024Z,101546.91
2023-05-19T14:36:20.780Z,101547.63
2023-05-19T14:38:47.392Z,101543.34
2023-05-19T14:41:14.045Z,101548.72
2023-05-19T14:43:43.774Z,101544.34
2023-05-19T14:46:10.508Z,101548.28
2023-05-19T14:48:37.245Z,101544.59
2023-05-19T14:51:03.957Z,101540.28
2023-05-19T14:53:30.747Z,101542.91
2023-05-19T14:55:57.354Z,101538.19
2023-05-19T14:58:28.785Z,101538.00
2023-05-19T15:00:57.571Z,101534.03
2023-05-19T15:03:26.679Z,101537.31
2023-05-19T15:05:53.463Z,101530.91
2023-05-19T15:08:20.062Z,101530.47
2023-05-19T15:10:50.013Z,101528.97
2023-05-19T15:13:19.267Z,101524.03
2023-05-19T15:15:46.094Z,101526.06
2023-05-19T15:18:13.705Z,101528.72
2023-05-19T15:20:40.444Z,101529.34
2023-05-19T15:23:07.105Z,101535.84
2023-05-19T15:25:33.729Z,101524.03
2023-05-19T15:28:00.354Z,101527.69
2023-05-19T15:30:26.912Z,101531.13
2023-05-19T15:32:53.712Z,101536.09
2023-05-19T15:35:20.407Z,101531.25
2023-05-19T15:37:47.042Z,101524.38
2023-05-19T15:40:13.724Z,101524.88
2023-05-19T15:42:40.475Z,101523.72
2023-05-19T15:45:08.190Z,101523.59
2023-05-19T15:47:34.967Z,101527.22
2023-05-19T15:50:01.588Z,101533.88
2023-05-19T15:52:29.242Z,101533.41
2023-05-19T15:54:59.027Z,101530.09
2023-05-19T15:57:26.004Z,101531.72
2023-05-19T15:59:52.842Z,101535.19
2023-05-19T16:02:19.677Z,101528.44
2023-05-19T16:04:46.529Z,101530.47
2023-05-19T16:07:13.198Z,101525.47
2023-05-19T16:09:42.322Z,101529.09
2023-05-19T16:12:11.332Z,101529.59
2023-05-19T16:14:37.930Z,101519.34
2023-05-19T16:17:05.136Z,101518.19
2023-05-19T16:19:31.970Z,101520.13
2023-05-19T16:21:59.143Z,101524.66
2023-05-19T16:24:25.939Z,101525.09
2023-05-19T16:26:53.900Z,101511.25
2023-05-19T16:29:20.622Z,101516.19
2023-05-19T16:31:47.290Z,101514.13
2023-05-19T16:34:14.063Z,101509.38
2023-05-19T16:36:40.736Z,101505.47
2023-05-19T16:39:07.409Z,101507.72
2023-05-19T16:41:34.027Z,101513.41
2023-05-19T16:44:02.258Z,101503.06
2023-05-19T16:46:30.589Z,101512.63
2023-05-19T16:48:57.939Z,101510.44
2023-05-19T16:51:24.694Z,101506.72
2023-05-19T16:53:53.654Z,101511.28
2023-05-19T16:56:21.853Z,101511.00
2023-05-19T16:58:49.381Z,101512.06
2023-05-19T17:01:17.450Z,101514.75
2023-05-19T17:03:44.152Z,101517.53
2023-05-19T17:06:10.845Z,101515.72
2023-05-19T17:08:37.528Z,101514.22
2023-05-19T17:11:08.594Z,101517.91
2023-05-19T17:13:36.503Z,101518.84
2023-05-19T17:16:03.184Z,101512.75
2023-05-19T17:18:31.291Z,101515.97
2023-05-19T17:20:59.385Z,101516.34
2023-05-19T17:23:26.118Z,101513.25
2023-05-19T17:25:55.833Z,101513.75
2023-05-19T17:28:22.501Z,101508.09
2023-05-19T17:30:49.076Z,101515.13
2023-05-19T17:33:15.746Z,101513.38
2023-05-19T17:35:43.454Z,101520.97
2023-05-19T17:38:10.083Z,101511.25
2023-05-19T17:40:37.070Z,101515.63
2023-05-19T17:43:03.873Z,101522.41
2023-05-19T17:45:30.838Z,101517.16
2023-05-19T17:47:59.901Z,101520.72
2023-05-19T17:50:26.476Z,101520.63
2023-05-19T17:52:53.394Z,101517.59
2023-05-19T17:55:20.217Z,101521.75
2023-05-19T17:57:48.024Z,101517.09
2023-05-19T18:00:15.656Z,101517.66
2023-05-19T18:02:42.458Z,101518.41
2023-05-19T18:05:09.617Z,101521.50
2023-05-19T18:07:39.481Z,101512.53
2023-05-19T18:10:06.628Z,101525.84
2023-05-19T18:12:33.219Z,101519.91
2023-05-19T18:14:59.878Z,101514.03
2023-05-19T18:17:26.598Z,101520.16
2023-05-19T18:19:54.670Z,101518.50
2023-05-19T18:22:21.332Z,101517.03
2023-05-19T18:24:48.667Z,101512.72
2023-05-19T18:27:15.362Z,101515.81
2023-05-19T18:29:42.237Z,101510.31
2023-05-19T18:32:09.243Z,101517.09
2023-05-19T18:34:35.928Z,101509.09
2023-05-19T18:37:02.593Z,101526.25
2023-05-19T18:39:29.454Z,101522.50
2023-05-19T18:41:58.429Z,101519.19
2023-05-19T18:44:25.248Z,101518.41
2023-05-19T18:46:51.935Z,101524.19
2023-05-19T18:49:18.584Z,101523.66
2023-05-19T18:51:48.433Z,101532.94
2023-05-19T18:54:15.769Z,101513.94
2023-05-19T18:56:42.448Z,101528.00
2023-05-19T18:59:10.074Z,101524.91
2023-05-19T19:01:36.727Z,101533.94
2023-05-19T19:04:03.587Z,101541.28
2023-05-19T19:06:31.275Z,101533.38
2023-05-19T19:08:57.905Z,101539.72
2023-05-19T19:11:24.459Z,101548.47
2023-05-19T19:13:51.485Z,101546.84
2023-05-19T19:16:18.340Z,101551.00
2023-05-19T19:18:47.374Z,101549.75
2023-05-19T19:21:14.078Z,101554.44
2023-05-19T19:23:40.955Z,101556.19
2023-05-19T19:26:09.273Z,101563.16
2023-05-19T19:28:35.932Z,101559.56
2023-05-19T19:31:02.680Z,101561.19
2023-05-19T19:33:29.378Z,101560.91
2023-05-19T19:35:56.141Z,101567.78
2023-05-19T19:38:22.780Z,101563.94
2023-05-19T19:40:51.009Z,101571.44
2023-05-19T19:43:17.703Z,101569.97
2023-05-19T19:45:44.265Z,101570.72
2023-05-19T19:48:12.108Z,101584.41
2023-05-19T19:50:38.888Z,101575.50
2023-05-19T19:53:05.527Z,101577.22
2023-05-19T19:55:32.385Z,101579.97
2023-05-19T19:57:59.058Z,101586.16
2023-05-19T20:00:25.676Z,101587.63
2023-05-19T20:03:04.470Z,101582.50
2023-05-19T20:05:32.474Z,101591.47
2023-05-19T20:07:59.158Z,101593.25
2023-05-19T20:10:25.830Z,101600.53
2023-05-19T20:12:52.575Z,101597.09
2023-05-19T20:15:19.182Z,101600.81
2023-05-19T20:17:45.933Z,101593.47
2023-05-19T20:20:12.850Z,101599.50
2023-05-19T20:22:39.505Z,101596.03
2023-05-19T20:25:06.442Z,101599.50
2023-05-19T20:27:33.093Z,101599.09
2023-05-19T20:29:59.838Z,101600.81
2023-05-19T20:32:26.558Z,101605.63
2023-05-19T20:34:53.367Z,101598.00
2023-05-19T20:37:23.581Z,101603.59
2023-05-19T20:39:51.556Z,101601.19
2023-05-19T20:42:18.155Z,101596.56
2023-05-19T20:44:44.915Z,101604.16
2023-05-19T20:47:11.613Z,101607.75
2023-05-19T20:49:38.327Z,101614.84
2023-05-19T20:52:04.920Z,101608.78
2023-05-19T20:54:31.508Z,101609.69
2023-05-19T20:56:58.245Z,101608.53
2023-05-19T20:59:24.883Z,101610.59
2023-05-19T21:01:51.429Z,101618.53
2023-05-19T21:04:19.396Z,101612.66
2023-05-19T21:06:46.055Z,101613.25
2023-05-19T21:09:12.792Z,101613.00
2023-05-19T21:11:39.414Z,101621.72
2023-05-19T21:14:06.614Z,101615.84
2023-05-19T21:16:34.170Z,101621.78
2023-05-19T21:19:01.952Z,101622.91
2023-05-19T21:21:28.736Z,101619.94
2023-05-19T21:23:55.376Z,101620.16
2023-05-19T21:26:24.166Z,101629.22
2023-05-19T21:28:51.163Z,101620.97
2023-05-19T21:31:17.794Z,101623.56
2023-05-19T21:33:44.730Z,101621.09
2023-05-19T21:36:11.366Z,101619.47
2023-05-19T21:38:38.017Z,101621.44
2023-05-19T21:41:04.617Z,101622.16
2023-05-19T21:43:31.265Z,101625.16
2023-05-19T21:45:57.894Z,101629.13
2023-05-19T21:48:24.608Z,101627.47
2023-05-19T21:50:54.942Z,101630.47
2023-05-19T21:53:23.758Z,101631.75
2023-05-19T21:55:50.850Z,101639.03
2023-05-19T21:58:18.252Z,101633.59
2023-05-19T22:00:51.529Z,101641.00
2023-05-19T22:03:18.440Z,101634.38
2023-05-19T22:05:51.547Z,101640.63
2023-05-19T22:08:18.907Z,101638.03
2023-05-19T22:10:51.377Z,101641.13
2023-05-19T22:13:18.978Z,101643.44
2023-05-19T22:15:45.697Z,101656.03
2023-05-19T22:18:12.877Z,101647.28
2023-05-19T22:20:39.925Z,101648.41
2023-05-19T22:23:06.708Z,101644.72
2023-05-19T22:25:33.340Z,101644.63
2023-05-19T22:28:01.305Z,101648.06
2023-05-19T22:30:27.951Z,101647.00
2023-05-19T22:32:54.642Z,101655.13
2023-05-19T22:35:21.444Z,101643.94
2023-05-19T22:37:48.096Z,101644.63
2023-05-19T22:40:14.736Z,101659.19
2023-05-19T22:42:43.451Z,101644.84
2023-05-19T22:45:10.193Z,101653.25
2023-05-19T22:47:36.903Z,101652.22
2023-05-19T22:50:04.072Z,101652.19
2023-05-19T22:52:30.743Z,101653.13
2023-05-19T22:54:57.329Z,101650.03
2023-05-19T22:57:23.990Z,101651.91
2023-05-19T22:59:50.660Z,101653.38
2023-05-19T23:02:17.466Z,101642.56
2023-05-19T23:04:44.067Z,101653.31
2023-05-19T23:07:10.677Z,101648.22
2023-05-19T23:09:37.254Z,101651.50
2023-05-19T23:12:04.027Z,101656.75
2023-05-19T23:14:31.629Z,101659.28
2023-05-19T23:16:58.316Z,101653.31
2023-05-19T23:19:25.097Z,101668.56
2023-05-19T23:21:51.812Z,101659.47
2023-05-19T23:24:18.373Z,101662.66
2023-05-19T23:26:45.094Z,101661.94
2023-05-19T23:29:13.050Z,101658.88
2023-05-19T23:31:40.990Z,101662.09
2023-05-19T23:34:07.786Z,101656.63
2023-05-19T23:36:34.422Z,101659.50
2023-05-19T23:39:01.251Z,101648.94
2023-05-19T23:41:28.232Z,101652.78
2023-05-19T23:43:54.801Z,101657.25
2023-05-19T23:46:21.490Z,101655.38
2023-05-19T23:48:48.176Z,101654.22
2023-05-19T23:51:14.842Z,101661.28
2023-05-19T23:53:43.304Z,101656.63
2023-05-19T23:56:10.599Z,101662.44
2023-05-19T23:58:37.168Z,101662.63
